WetterOnline ( https://www.wetteronline.de )

Wetter aktuell Lützow

Aktuelles Wetter: Schwerin (68m)

6-stündlich | Neueste Meldungen
Ortszeit Temperatur Wetter
Fr, 24.09. 2:00 12.4° C fast wolkenlos
Do, 23.09. 20:00 14.9° C bewölkt
Do, 23.09. 14:00 15.7° C bedeckt
Do, 23.09. 8:00 12.1° C bedeckt
Do, 23.09. 2:00 12.4° C leicht bewölkt
Mi, 22.09. 20:00 14.5° C wolkenlos
Mi, 22.09. 14:00 17.3° C bewölkt
Mi, 22.09. 8:00 10.8° C wolkig
Ortszeit Temperatur Wetter
Fr, 24.09. 2:00 12.4° C fast wolkenlos
Fr, 24.09. 1:50 12.4° C fast wolkenlos
Fr, 24.09. 1:40 12.3° C fast wolkenlos
Fr, 24.09. 1:30 12.3° C wolkenlos
Fr, 24.09. 1:20 12.3° C wolkenlos
Fr, 24.09. 1:10 12.4° C fast wolkenlos
Fr, 24.09. 1:00 12.2° C fast wolkenlos
Fr, 24.09. 0:30 12.3° C leicht bewölkt
Fr, 24.09. 0:00 12.3° C wolkig
Do, 23.09. 23:30 12.6° C wolkig
Do, 23.09. 23:00 12.6° C wolkig
Ortszeit Relative Feuchte Sichtweite
Fr, 24.09. 2:00 75% 28 km
Do, 23.09. 20:00 82% 30 km
Do, 23.09. 14:00 77% 24 km
Do, 23.09. 8:00 86% 9 km
Do, 23.09. 2:00 92% 11 km
Mi, 22.09. 20:00 83% 40 km
Mi, 22.09. 14:00 67% 30 km
Mi, 22.09. 8:00 95% 17 km
Ortszeit Relative Feuchte Sichtweite
Fr, 24.09. 2:00 75% 28 km
Fr, 24.09. 1:50 75% -
Fr, 24.09. 1:40 75% -
Fr, 24.09. 1:30 75% 25 km
Fr, 24.09. 1:20 75% -
Fr, 24.09. 1:10 74% -
Fr, 24.09. 1:00 75% 26 km
Fr, 24.09. 0:30 74% 23 km
Fr, 24.09. 0:00 73% 22 km
Do, 23.09. 23:30 71% 21 km
Do, 23.09. 23:00 72% 20 km
Ortszeit Niederschlagsmenge Niederschlagsart
Fr, 24.09. 2:00 0.1 l/m2 in 6 Std. Sprühregen
Do, 23.09. 20:00 0.7 l/m2 in 12 Std. Regen
Do, 23.09. 14:00 0.0 l/m2 in 6 Std. -
Do, 23.09. 8:00 0.0 l/m2 in 12 Std. -
Do, 23.09. 2:00 0.0 l/m2 in 6 Std. -
Mi, 22.09. 20:00 0.0 l/m2 in 12 Std. -
Mi, 22.09. 14:00 0.0 l/m2 in 6 Std. -
Mi, 22.09. 8:00 0.0 l/m2 in 12 Std. -
Ortszeit Niederschlagsmenge Niederschlagsart
Fr, 24.09. 2:00 0.0 l/m2 in 1 Std. Sprühregen
Fr, 24.09. 1:50 keine Meldung -
Fr, 24.09. 1:40 keine Meldung -
Fr, 24.09. 1:30 0.0 l/m2 in 1 Std. -
Fr, 24.09. 1:20 keine Meldung -
Fr, 24.09. 1:10 keine Meldung -
Fr, 24.09. 1:00 0.0 l/m2 in 1 Std. -
Fr, 24.09. 0:30 0.0 l/m2 in 1 Std. -
Fr, 24.09. 0:00 0.0 l/m2 in 1 Std. -
Do, 23.09. 23:30 0.0 l/m2 in 1 Std. -
Do, 23.09. 23:00 0.0 l/m2 in 1 Std. Sprühregen
Ortszeit Stärke Spitze Richtung
km/h Bft. km/h Grad Sektor
Fr, 24.09. 2:00 28 4 69 280° W
Do, 23.09. 20:00 31 5 59 270° W
Do, 23.09. 14:00 31 5 52 240° SW
Do, 23.09. 8:00 22 4 40 230° SW
Do, 23.09. 2:00 14 3 25 230° SW
Mi, 22.09. 20:00 14 3 29 220° SW
Mi, 22.09. 14:00 15 3 26 260° W
Mi, 22.09. 8:00 9 2 22 260° W
Ortszeit Stärke Spitze Richtung
km/h Bft. km/h Grad Sektor
Fr, 24.09. 2:00 28 4 50 280° W
Fr, 24.09. 1:50 28 4 - 280° W
Fr, 24.09. 1:40 25 4 - 280° W
Fr, 24.09. 1:30 26 4 46 270° W
Fr, 24.09. 1:20 26 4 - 270° W
Fr, 24.09. 1:10 29 5 - 280° W
Fr, 24.09. 1:00 22 4 43 290° W
Fr, 24.09. 0:30 22 4 43 270° W
Fr, 24.09. 0:00 22 4 58 280° W
Do, 23.09. 23:30 28 4 57 280° W
Do, 23.09. 23:00 25 4 47 280° W
Ortszeit Untergrenze Bedeckung Gattung
total tief tief mittel hoch
Fr, 24.09. 2:00 8400 m 2/8 0/8 - - -
Do, 23.09. 20:00 720 m 7/8 7/8 - - -
Do, 23.09. 14:00 660 m 8/8 8/8 - - -
Do, 23.09. 8:00 4200 m 8/8 8/8 - - -
Do, 23.09. 2:00 6600 m 3/8 3/8 - - -
Mi, 22.09. 20:00 - 0/8 0/8 - - -
Mi, 22.09. 14:00 870 m 7/8 7/8 - - -
Mi, 22.09. 8:00 9000 m 7/8 0/8 - - -
Ortszeit Bedeckungsgrad in Achtel und Wolkenuntergrenze
Fr, 24.09. 2:00 1(8400m)
Fr, 24.09. 1:50 1(8400m) 2(10500m)
Fr, 24.09. 1:40 1(10500m)
Fr, 24.09. 1:30 keine Wolken
Fr, 24.09. 1:20 keine Wolken
Fr, 24.09. 1:10 1(10500m)
Fr, 24.09. 1:00 1(10500m)
Fr, 24.09. 0:30 1(1380m) 6(10500m)
Fr, 24.09. 0:00 8(9000m) 8(9000m)
Do, 23.09. 23:30 8(9000m)
Do, 23.09. 23:00 8(9000m) 8(9000m)
Ortszeit Luftdruck NN (hPa) Tendenz (hPa in 3 Std.)
Fr, 24.09. 2:00 1010 + 1,0
Do, 23.09. 20:00 1007 + 0,2
Do, 23.09. 14:00 1010 - 2,7
Do, 23.09. 8:00 1015 - 2,4
Do, 23.09. 2:00 1020 - 1,8
Mi, 22.09. 20:00 1023 - 1,3
Mi, 22.09. 14:00 1026 - 0,8
Mi, 22.09. 8:00 1027 + 0,4
Ortszeit Luftdruck NN (hPa) Tendenz (hPa in 3 Std.)
Fr, 24.09. 2:00 1010 + 1,0
Fr, 24.09. 1:50 1010 keine Meldung
Fr, 24.09. 1:40 1010 keine Meldung
Fr, 24.09. 1:30 1010 + 0,6
Fr, 24.09. 1:20 1010 keine Meldung
Fr, 24.09. 1:10 1010 keine Meldung
Fr, 24.09. 1:00 1010 + 0,9
Fr, 24.09. 0:30 1009 + 0,7
Fr, 24.09. 0:00 1009 + 1,3
Do, 23.09. 23:30 1009 + 1,4
Do, 23.09. 23:00 1009 + 1,6
Ortszeit Schneehöhe (cm)
Fr, 24.09. 2:00 -
Do, 23.09. 20:00 -
Do, 23.09. 14:00 -
Do, 23.09. 8:00 -
Do, 23.09. 2:00 -
Mi, 22.09. 20:00 -
Mi, 22.09. 14:00 -
Mi, 22.09. 8:00 -
Ortszeit Schneehöhe (cm)
Fr, 24.09. 2:00 -
Fr, 24.09. 1:50 -
Fr, 24.09. 1:40 -
Fr, 24.09. 1:30 -
Fr, 24.09. 1:20 -
Fr, 24.09. 1:10 -
Fr, 24.09. 1:00 -
Fr, 24.09. 0:30 -
Fr, 24.09. 0:00 -
Do, 23.09. 23:30 -
Do, 23.09. 23:00 -
Link zu dieser Seite / Seite empfehlen

Das Wetter in ...